« Back
NWS Peachtree City, Ga » Text Product » CSG Terminal Aerodrome Forecast


Printer-friendly Version
Current Version              Previous Versions:   1  2  3  4  5  6  7  8  9  

Terminal Aerodrome Forecast

168
FTUS42 KFFC 251130
TAFCSG
TAF
KCSG 251130Z 2512/2612 30006KT P6SM SKC
     FM251400 30004KT P6SM SKC
     FM260000 00000KT P6SM SKC=



USA.gov is the U.S. government's official web portal to all federal, state and local government web resources and services.